Rapid City, SD

11:23 AM MST on January 24, 2017 (GMT -0700)
MD4997 | | Change Station
Active Advisory: Winter Weather Advisory

Elev 3263 ft 44.08 °N, 103.21 °W | Updated 8 minutes ago

Snow
Snow
22.0 °F
Feels Like 15 °F
N
5.0
Wind Variable Wind from West
Gusts 9.0 mph

Today
High -- | Low -- °F
--% Chance of Precip.
Yesterday
High -- | Low -- °F
Precip. -- in
Pressure 29.91 in
Visibility 0.8 miles
Clouds
Windchill 15 °F
Dew Point 20 °F
Humidity 90%
Rainfall 0.16 in
Snow Depth Not available.
7:17 AM 4:52 PM
Waning Crescent, 10% visible
METAR KRAP 241752Z 33016KT 3/4SM -SN BR VV019 M06/M08 A2978 RMK AO2 SLP129 P0001 60007 I6003 T10611078 11056 21067 53005 RVRNO
Pressure 29.91 in
Visibility 0.8 miles
Clouds
Windchill 15 °F
Dew Point 20 °F
Humidity 90%
Rainfall 0.16 in
Snow Depth Not available.
7:17 AM 4:52 PM
Waning Crescent, 10% visible
METAR KRAP 241752Z 33016KT 3/4SM -SN BR VV019 M06/M08 A2978 RMK AO2 SLP129 P0001 60007 I6003 T10611078 11056 21067 53005 RVRNO

Get Your Daily Forecast Email!

Thanks for signing up!

Be on the lookout for a verification email in your inbox.

You'll start receiving the daily forecast at 8 AM.

×

10-Day Weather Forecast

Almanac

Astronomy

Jan. 24, 2017 Rise Set
Actual Time
Civil Twilight
Nautical Twilight
Astronomical Twilight
Moon
Length of Visible Light
Length of Day
Tomorrow will be .
, % of the Moon is Illuminated

Today's Extremes

State Highs State Lows

Community

WunderPhotos

Upload Photos

1,962,540 photos uploaded!

WunderBlog® & News

Nearby

Air Quality

  Air Quality AQ Index Pollutant
Not available.

Snow Depth

Station Depth Elevation

Earthquake Activity

City Distance Mag. Time & Date
Minimum magnitude displayed is 2.5.

Coastal Water Temperatures

Place Temperature

Stations

Nearby Weather Stations

Station Location Temp. Windchill Dew Point Humidity Wind Precip. Elev Updated Type
                   

Watches & Warnings

Winter Weather Advisory
Issued: 9:37 AM MST Jan. 24, 2017 – National Weather Service

... Winter Weather Advisory remains in effect until 5 am MST
Wednesday...

* snow will continue through afternoon... diminishing this
evening.

* Total snow accumulations of 3 to 5 inches are expected.

* Look for reduced visibilities at times in snow and blowing
snow.

* Plan on slippery Road conditions.

Precautionary/preparedness actions...

A Winter Weather Advisory for snow means periods of snow will
cause primarily travel difficulties. Be prepared for snow covered
roads and limited visibilities... and use caution while driving.
The latest Road conditions for the state you are calling from can
be obtained by calling 5 1 1.